Terminal Aerodrome Forecast
Issued by NWS

Home | Current Version | Previous Version | Text Only | Print | Product List | Glossary On
Versions: 1 2 3 4 5 6 7 8 9 10 11 12 13 14 15 16 17 18 19 20 21 22 23 24 25 26 27 28 29
000
FTPQ31 PGUM 052325
TAFGUM
TAF

TAF
PTYA 052325Z 0600/0624 12025G40KT 3SM +SHRA SCT007 BKN013 OVC120
     FM060300 15020G35KT 5SM SHRA SCT013 BKN030 OVC120
     FM060600 17018G30KT 6SM SHRA SCT015 SCT030 BKN120
     FM061200 17015G25KT P6SM VCSH SCT015 SCT030 BKN120
     FM062200 17011KT P6SM VCSH SCT016 SCT040 BKN120=

USA.gov is the U.S. government's official web portal to all federal, state and local government web resources and services.